createdAt,value
2022-12-29T00:00:19.744Z,2.74
2022-12-29T00:02:46.547Z,2.91
2022-12-29T00:05:18.122Z,2.97
2022-12-29T00:07:52.158Z,3.08
2022-12-29T00:10:18.976Z,2.91
2022-12-29T00:13:17.297Z,2.98
2022-12-29T00:15:44.007Z,2.91
2022-12-29T00:18:15.883Z,3.00
2022-12-29T00:21:06.099Z,2.99
2022-12-29T00:23:52.486Z,2.93
2022-12-29T00:26:40.317Z,2.89
2022-12-29T00:29:30.212Z,2.87
2022-12-29T00:32:15.584Z,2.78
2022-12-29T00:35:01.707Z,2.79
2022-12-29T00:37:52.015Z,2.87
2022-12-29T00:40:39.851Z,2.94
2022-12-29T00:43:27.440Z,2.86
2022-12-29T00:45:54.211Z,2.82
2022-12-29T00:48:40.744Z,2.86
2022-12-29T00:51:09.892Z,2.82
2022-12-29T00:53:38.968Z,2.85
2022-12-29T00:56:07.937Z,2.75
2022-12-29T00:58:36.766Z,2.81
2022-12-29T01:01:11.746Z,2.86
2022-12-29T01:03:41.340Z,2.79
2022-12-29T01:06:10.141Z,2.79
2022-12-29T01:08:41.743Z,2.75
2022-12-29T01:11:12.523Z,2.73
2022-12-29T01:13:43.446Z,2.67
2022-12-29T01:16:12.706Z,2.73
2022-12-29T01:18:41.956Z,2.61
2022-12-29T01:21:10.774Z,2.73
2022-12-29T01:23:42.299Z,2.70
2022-12-29T01:26:13.159Z,2.69
2022-12-29T01:28:43.092Z,2.73
2022-12-29T01:31:11.803Z,2.70
2022-12-29T01:33:41.397Z,2.77
2022-12-29T01:36:13.959Z,2.65
2022-12-29T01:38:41.902Z,2.67
2022-12-29T01:41:15.255Z,2.79
2022-12-29T01:43:49.365Z,2.68
2022-12-29T01:46:31.465Z,3.07
2022-12-29T01:49:01.939Z,2.91
2022-12-29T01:51:38.461Z,2.91
2022-12-29T01:54:14.148Z,2.78
2022-12-29T01:56:43.097Z,2.74
2022-12-29T01:59:18.948Z,2.84
2022-12-29T02:01:48.766Z,2.83
2022-12-29T02:04:15.813Z,2.82
2022-12-29T02:06:53.240Z,2.83
2022-12-29T02:09:20.245Z,2.78
2022-12-29T02:11:47.593Z,2.73
2022-12-29T02:14:20.806Z,2.67
2022-12-29T02:16:59.610Z,2.68
2022-12-29T02:20:14.030Z,2.61
2022-12-29T02:22:52.934Z,2.59
2022-12-29T02:25:55.873Z,2.55
2022-12-29T02:28:57.058Z,2.48
2022-12-29T02:31:35.289Z,2.51
2022-12-29T02:34:08.209Z,2.53
2022-12-29T02:36:50.052Z,2.47
2022-12-29T02:39:27.051Z,2.45
2022-12-29T02:42:12.623Z,2.43
2022-12-29T02:44:56.904Z,2.41
2022-12-29T02:47:37.553Z,2.47
2022-12-29T02:50:24.547Z,2.43
2022-12-29T02:52:57.530Z,2.45
2022-12-29T02:55:24.243Z,2.59
2022-12-29T02:58:12.449Z,2.61
2022-12-29T03:01:03.311Z,2.64
2022-12-29T03:03:30.359Z,2.66
2022-12-29T03:06:10.135Z,2.90
2022-12-29T03:08:36.802Z,2.93
2022-12-29T03:11:28.889Z,2.88
2022-12-29T03:14:25.959Z,3.07
2022-12-29T03:17:00.628Z,2.90
2022-12-29T03:19:36.198Z,3.02
2022-12-29T03:22:24.893Z,3.21
2022-12-29T03:25:16.391Z,3.30
2022-12-29T03:27:51.454Z,3.24
2022-12-29T03:30:25.242Z,3.27
2022-12-29T03:33:04.226Z,3.21
2022-12-29T03:35:37.745Z,3.19
2022-12-29T03:38:20.534Z,3.17
2022-12-29T03:40:59.649Z,3.26
2022-12-29T03:43:32.973Z,3.23
2022-12-29T03:46:04.770Z,3.20
2022-12-29T03:48:36.237Z,3.21
2022-12-29T03:51:08.385Z,3.16
2022-12-29T03:53:39.979Z,3.11
2022-12-29T03:56:06.991Z,3.16
2022-12-29T03:58:34.141Z,3.23
2022-12-29T04:01:10.630Z,3.18
2022-12-29T04:03:39.592Z,3.26
2022-12-29T04:06:06.476Z,3.22
2022-12-29T04:08:42.185Z,3.14
2022-12-29T04:11:11.819Z,3.10
2022-12-29T04:13:43.443Z,3.29
2022-12-29T04:16:17.033Z,3.33
2022-12-29T04:18:43.871Z,3.21
2022-12-29T04:21:15.280Z,3.19
2022-12-29T04:23:45.224Z,3.13
2022-12-29T04:26:14.912Z,3.23
2022-12-29T04:28:52.873Z,3.26
2022-12-29T04:31:41.528Z,3.27
2022-12-29T04:34:11.093Z,3.46
2022-12-29T04:36:41.252Z,3.58
2022-12-29T04:39:08.067Z,3.60
2022-12-29T04:41:38.360Z,3.54
2022-12-29T04:44:12.537Z,3.52
2022-12-29T04:46:57.162Z,3.62
2022-12-29T04:49:55.516Z,3.66
2022-12-29T04:52:50.733Z,4.07
2022-12-29T04:55:19.979Z,4.61
2022-12-29T04:57:50.166Z,5.13
2022-12-29T05:00:21.889Z,4.99
2022-12-29T05:02:50.941Z,5.26
2022-12-29T05:05:23.073Z,5.25
2022-12-29T05:07:51.626Z,5.14
2022-12-29T05:10:21.124Z,5.29
2022-12-29T05:12:53.356Z,5.69
2022-12-29T05:15:22.927Z,5.90
2022-12-29T05:17:54.155Z,6.09
2022-12-29T05:20:23.209Z,6.10
2022-12-29T05:22:49.873Z,6.27
2022-12-29T05:25:19.472Z,6.24
2022-12-29T05:28:11.129Z,6.06
2022-12-29T05:30:57.048Z,6.03
2022-12-29T05:33:23.774Z,6.15
2022-12-29T05:35:57.656Z,6.13
2022-12-29T05:38:32.414Z,6.24
2022-12-29T05:41:06.107Z,6.33
2022-12-29T05:44:03.514Z,6.34
2022-12-29T05:46:45.703Z,6.49
2022-12-29T05:49:19.173Z,6.45
2022-12-29T05:52:18.106Z,6.43
2022-12-29T05:54:48.227Z,6.48
2022-12-29T05:57:23.466Z,6.47
2022-12-29T06:00:04.871Z,6.49
2022-12-29T06:02:43.913Z,6.57
2022-12-29T06:05:13.246Z,6.43
2022-12-29T06:07:40.500Z,6.37
2022-12-29T06:10:10.343Z,6.46
2022-12-29T06:13:07.827Z,6.64
2022-12-29T06:15:42.930Z,6.64
2022-12-29T06:18:17.924Z,6.63
2022-12-29T06:20:51.795Z,6.66
2022-12-29T06:23:27.034Z,6.39
2022-12-29T06:25:56.577Z,6.31
2022-12-29T06:28:27.771Z,6.35
2022-12-29T06:31:03.778Z,6.07
2022-12-29T06:33:33.122Z,5.70
2022-12-29T06:36:02.239Z,5.57
2022-12-29T06:38:31.469Z,5.46
2022-12-29T06:41:04.291Z,5.34
2022-12-29T06:43:44.247Z,5.32
2022-12-29T06:46:27.723Z,5.20
2022-12-29T06:48:57.459Z,4.79
2022-12-29T06:51:26.395Z,4.76
2022-12-29T06:53:57.193Z,4.80
2022-12-29T06:56:26.348Z,4.67
2022-12-29T06:58:55.353Z,4.69
2022-12-29T07:01:26.966Z,4.60
2022-12-29T07:03:58.591Z,4.65
2022-12-29T07:06:27.658Z,4.65
2022-12-29T07:08:58.335Z,4.63
2022-12-29T07:11:29.789Z,4.65
2022-12-29T07:14:02.150Z,4.62
2022-12-29T07:16:30.462Z,4.59
2022-12-29T07:18:58.067Z,4.55
2022-12-29T07:21:24.698Z,4.56
2022-12-29T07:23:54.921Z,4.53
2022-12-29T07:26:28.280Z,4.53
2022-12-29T07:28:57.055Z,4.51
2022-12-29T07:31:28.481Z,4.46
2022-12-29T07:33:55.629Z,4.44
2022-12-29T07:36:29.297Z,4.39
2022-12-29T07:39:01.575Z,4.39
2022-12-29T07:41:33.778Z,4.39
2022-12-29T07:44:05.320Z,4.31
2022-12-29T07:46:59.129Z,4.26
2022-12-29T07:49:28.282Z,4.27
2022-12-29T07:51:54.940Z,4.23
2022-12-29T07:54:28.725Z,4.22
2022-12-29T07:56:58.532Z,4.18
2022-12-29T07:59:25.394Z,4.18
2022-12-29T08:01:59.537Z,4.21
2022-12-29T08:04:28.814Z,4.19
2022-12-29T08:07:01.042Z,4.20
2022-12-29T08:09:30.036Z,4.25
2022-12-29T08:11:58.969Z,4.25
2022-12-29T08:14:27.831Z,4.21
2022-12-29T08:17:00.000Z,4.19
2022-12-29T08:19:31.532Z,4.16
2022-12-29T08:21:58.241Z,4.22
2022-12-29T08:24:27.343Z,4.20
2022-12-29T08:27:00.819Z,4.18
2022-12-29T08:29:33.554Z,4.18
2022-12-29T08:32:04.824Z,4.19
2022-12-29T08:34:33.980Z,4.18
2022-12-29T08:37:03.244Z,4.14
2022-12-29T08:39:32.280Z,4.20
2022-12-29T08:41:58.964Z,4.19
2022-12-29T08:44:27.668Z,4.21
2022-12-29T08:46:58.791Z,4.25
2022-12-29T08:49:28.542Z,4.29
2022-12-29T08:52:02.501Z,4.23
2022-12-29T08:54:31.389Z,4.33
2022-12-29T08:56:58.124Z,4.38
2022-12-29T08:59:38.510Z,4.42
2022-12-29T09:02:10.877Z,4.47
2022-12-29T09:04:44.761Z,4.47
2022-12-29T09:07:13.862Z,4.52
2022-12-29T09:09:40.538Z,4.63
2022-12-29T09:12:09.554Z,4.70
2022-12-29T09:14:38.531Z,4.70
2022-12-29T09:17:26.712Z,4.77
2022-12-29T09:19:58.317Z,4.85
2022-12-29T09:22:24.969Z,4.88
2022-12-29T09:24:51.517Z,5.07
2022-12-29T09:27:20.450Z,5.16
2022-12-29T09:29:47.104Z,5.40
2022-12-29T09:32:19.039Z,5.46
2022-12-29T09:34:51.520Z,5.41
2022-12-29T09:37:22.494Z,5.53
2022-12-29T09:39:54.478Z,5.57
2022-12-29T09:42:33.000Z,5.66
2022-12-29T09:45:11.523Z,5.63
2022-12-29T09:47:38.902Z,5.65
2022-12-29T09:50:31.451Z,5.77
2022-12-29T09:53:45.571Z,6.06
2022-12-29T09:56:19.573Z,6.57
2022-12-29T09:58:54.494Z,6.79
2022-12-29T10:01:33.120Z,7.03
2022-12-29T10:04:04.040Z,7.15
2022-12-29T10:09:47.443Z,7.64
2022-12-29T10:12:50.410Z,7.55
2022-12-29T10:15:43.061Z,8.11
2022-12-29T10:18:31.470Z,8.04
2022-12-29T10:21:09.503Z,8.49
2022-12-29T10:23:51.058Z,8.60
2022-12-29T10:26:31.171Z,8.82
2022-12-29T10:29:03.675Z,9.11
2022-12-29T10:31:40.936Z,9.55
2022-12-29T10:34:45.179Z,9.94
2022-12-29T10:37:34.127Z,10.27
2022-12-29T10:40:14.582Z,10.76
2022-12-29T10:42:53.814Z,10.96
2022-12-29T10:45:24.008Z,11.09
2022-12-29T10:48:01.576Z,11.38
2022-12-29T10:50:30.745Z,11.43
2022-12-29T10:53:04.090Z,11.73
2022-12-29T10:55:38.672Z,12.02
2022-12-29T10:58:14.725Z,12.27
2022-12-29T11:00:45.275Z,12.48
2022-12-29T11:03:14.795Z,12.28
2022-12-29T11:05:52.916Z,12.36
2022-12-29T11:08:24.305Z,12.35
2022-12-29T11:11:08.821Z,12.54
2022-12-29T11:13:49.005Z,12.38
2022-12-29T11:16:16.143Z,12.26
2022-12-29T11:18:47.840Z,12.27
2022-12-29T11:21:42.950Z,12.12
2022-12-29T11:24:32.812Z,12.17
2022-12-29T11:27:23.904Z,12.09
2022-12-29T11:29:54.671Z,12.33
2022-12-29T11:32:29.217Z,12.43
2022-12-29T11:34:59.895Z,12.36
2022-12-29T11:37:35.675Z,12.25
2022-12-29T11:40:20.975Z,12.25
2022-12-29T11:42:52.711Z,12.16
2022-12-29T11:45:22.001Z,12.20
2022-12-29T11:47:57.058Z,12.06
2022-12-29T11:50:27.284Z,11.98
2022-12-29T11:53:04.242Z,11.92
2022-12-29T11:55:37.763Z,11.87
2022-12-29T11:58:17.015Z,11.75
2022-12-29T12:00:48.197Z,11.59
2022-12-29T12:03:28.323Z,11.50
2022-12-29T12:06:02.824Z,11.40
2022-12-29T12:08:43.930Z,11.27
2022-12-29T12:11:37.306Z,11.20
2022-12-29T12:14:13.092Z,11.17
2022-12-29T12:17:15.791Z,11.14
2022-12-29T12:20:15.228Z,11.16
2022-12-29T12:22:48.955Z,11.16
2022-12-29T12:25:26.895Z,11.13
2022-12-29T12:28:20.643Z,11.06
2022-12-29T12:30:56.987Z,11.02
2022-12-29T12:33:28.196Z,10.94
2022-12-29T12:36:20.639Z,10.76
2022-12-29T12:39:00.385Z,10.70
2022-12-29T12:41:26.928Z,10.72
2022-12-29T12:43:59.593Z,10.71
2022-12-29T12:46:48.485Z,10.59
2022-12-29T12:49:45.071Z,10.49
2022-12-29T12:52:53.754Z,10.49
2022-12-29T12:55:41.936Z,10.32
2022-12-29T12:58:23.124Z,10.41
2022-12-29T13:01:08.226Z,10.24
2022-12-29T13:03:51.321Z,10.38
2022-12-29T13:06:36.735Z,10.34
2022-12-29T13:09:15.558Z,10.30
2022-12-29T13:12:07.685Z,10.25
2022-12-29T13:15:04.591Z,10.23
2022-12-29T13:17:44.201Z,10.14
2022-12-29T13:20:28.536Z,10.10
2022-12-29T13:23:03.611Z,10.02
2022-12-29T13:25:42.871Z,9.95
2022-12-29T13:28:26.926Z,10.02
2022-12-29T13:31:09.787Z,9.90
2022-12-29T13:34:02.688Z,9.76
2022-12-29T13:36:38.532Z,9.62
2022-12-29T13:39:21.089Z,9.59
2022-12-29T13:41:55.839Z,9.53
2022-12-29T13:44:36.451Z,9.44
2022-12-29T13:47:43.837Z,9.45
2022-12-29T13:50:19.788Z,9.37
2022-12-29T13:52:49.425Z,9.35
2022-12-29T13:55:32.712Z,9.28
2022-12-29T13:58:24.105Z,9.28
2022-12-29T14:01:01.445Z,9.22
2022-12-29T14:03:30.656Z,9.21
2022-12-29T14:06:25.036Z,9.22
2022-12-29T14:08:57.002Z,9.16
2022-12-29T14:11:41.011Z,9.13
2022-12-29T14:14:25.786Z,9.14
2022-12-29T14:16:55.501Z,9.07
2022-12-29T14:19:22.110Z,9.04
2022-12-29T14:22:00.748Z,8.94
2022-12-29T14:24:39.832Z,8.90
2022-12-29T14:27:12.606Z,8.83
2022-12-29T14:29:41.579Z,8.85
2022-12-29T14:32:33.651Z,8.76
2022-12-29T14:35:39.515Z,8.74
2022-12-29T14:38:19.335Z,8.67
2022-12-29T14:40:49.276Z,8.66
2022-12-29T14:43:28.281Z,8.63
2022-12-29T14:46:02.630Z,8.62
2022-12-29T14:48:37.455Z,8.53
2022-12-29T14:51:18.976Z,8.47
2022-12-29T14:53:55.471Z,8.52
2022-12-29T14:56:32.139Z,8.42
2022-12-29T14:59:11.335Z,8.43
2022-12-29T15:01:50.837Z,8.32
2022-12-29T15:04:23.885Z,8.37
2022-12-29T15:06:57.579Z,8.36
2022-12-29T15:09:39.754Z,8.31
2022-12-29T15:12:23.190Z,8.28
2022-12-29T15:14:51.133Z,8.20
2022-12-29T15:17:30.111Z,8.15
2022-12-29T15:20:03.997Z,8.13
2022-12-29T15:22:38.043Z,8.04
2022-12-29T15:25:16.750Z,7.97
2022-12-29T15:27:52.678Z,7.95
2022-12-29T15:30:22.594Z,7.78
2022-12-29T15:32:51.786Z,7.78
2022-12-29T15:35:38.610Z,7.86
2022-12-29T15:38:26.234Z,7.78
2022-12-29T15:41:08.903Z,7.70
2022-12-29T15:43:47.159Z,7.68
2022-12-29T15:46:19.456Z,7.63
2022-12-29T15:48:46.203Z,7.53
2022-12-29T15:51:29.930Z,7.45
2022-12-29T15:53:56.943Z,7.45
2022-12-29T15:56:33.762Z,7.37
2022-12-29T15:59:05.834Z,7.38
2022-12-29T16:01:35.375Z,7.31
2022-12-29T16:04:09.923Z,7.37
2022-12-29T16:06:44.907Z,7.44
2022-12-29T16:09:22.545Z,7.37
2022-12-29T16:11:57.587Z,7.31
2022-12-29T16:14:40.080Z,7.26
2022-12-29T16:17:16.944Z,7.29
2022-12-29T16:19:52.548Z,7.24
2022-12-29T16:22:32.176Z,7.29
2022-12-29T16:25:07.826Z,7.18
2022-12-29T16:27:39.589Z,7.11
2022-12-29T16:30:33.957Z,6.99
2022-12-29T16:33:26.534Z,6.88
2022-12-29T16:35:58.780Z,6.91
2022-12-29T16:38:36.554Z,6.86
2022-12-29T16:41:05.810Z,6.81
2022-12-29T16:43:43.309Z,6.82
2022-12-29T16:46:28.397Z,6.73
2022-12-29T16:49:04.479Z,6.75
2022-12-29T16:51:32.858Z,6.72
2022-12-29T16:54:02.784Z,6.68
2022-12-29T16:56:33.983Z,6.70
2022-12-29T16:59:22.286Z,6.60
2022-12-29T17:01:48.987Z,6.54
2022-12-29T17:04:15.852Z,6.55
2022-12-29T17:06:44.774Z,6.57
2022-12-29T17:09:25.525Z,6.56
2022-12-29T17:12:01.528Z,6.50
2022-12-29T17:14:37.960Z,6.48
2022-12-29T17:17:13.869Z,6.38
2022-12-29T17:19:45.318Z,6.37
2022-12-29T17:22:20.437Z,6.40
2022-12-29T17:24:52.549Z,6.34
2022-12-29T17:27:48.257Z,6.27
2022-12-29T17:30:27.060Z,6.35
2022-12-29T17:33:06.436Z,6.38
2022-12-29T17:35:33.096Z,6.44
2022-12-29T17:38:11.789Z,6.45
2022-12-29T17:40:38.563Z,6.52
2022-12-29T17:43:07.405Z,6.55
2022-12-29T17:45:36.115Z,6.54
2022-12-29T17:48:14.562Z,6.52
2022-12-29T17:50:49.800Z,6.53
2022-12-29T17:53:24.892Z,6.50
2022-12-29T17:55:56.593Z,6.44
2022-12-29T17:58:32.379Z,6.39
2022-12-29T18:01:04.335Z,6.30
2022-12-29T18:03:34.871Z,6.27
2022-12-29T18:06:10.970Z,6.26
2022-12-29T18:08:41.380Z,6.28
2022-12-29T18:11:25.841Z,6.20
2022-12-29T18:13:59.561Z,6.13
2022-12-29T18:16:29.079Z,6.16
2022-12-29T18:18:55.818Z,6.12
2022-12-29T18:21:25.589Z,6.09
2022-12-29T18:23:52.387Z,6.03
2022-12-29T18:26:28.116Z,6.02
2022-12-29T18:29:01.501Z,5.90
2022-12-29T18:31:33.705Z,5.86
2022-12-29T18:34:13.302Z,5.78
2022-12-29T18:36:40.017Z,5.70
2022-12-29T18:39:09.098Z,5.71
2022-12-29T18:41:35.722Z,5.72
2022-12-29T18:44:02.295Z,5.70
2022-12-29T18:46:33.750Z,5.75
2022-12-29T18:49:00.418Z,5.61
2022-12-29T18:51:29.517Z,5.61
2022-12-29T18:54:00.340Z,5.58
2022-12-29T18:56:27.223Z,5.59
2022-12-29T18:58:56.987Z,5.54
2022-12-29T19:01:31.115Z,5.22
2022-12-29T19:04:01.365Z,5.15
2022-12-29T19:06:32.589Z,5.08
2022-12-29T19:09:03.662Z,5.05
2022-12-29T19:11:35.345Z,4.88
2022-12-29T19:14:04.485Z,4.92
2022-12-29T19:16:33.355Z,4.97
2022-12-29T19:19:09.437Z,4.88
2022-12-29T19:21:39.986Z,4.95
2022-12-29T19:24:09.253Z,5.01
2022-12-29T19:26:40.804Z,4.97
2022-12-29T19:29:15.702Z,5.03
2022-12-29T19:31:45.092Z,5.06
2022-12-29T19:34:16.884Z,5.11
2022-12-29T19:36:46.514Z,5.02
2022-12-29T19:39:13.597Z,5.10
2022-12-29T19:41:40.395Z,5.03
2022-12-29T19:44:08.339Z,5.03
2022-12-29T19:46:35.059Z,4.98
2022-12-29T19:49:06.411Z,4.99
2022-12-29T19:51:33.137Z,4.95
2022-12-29T19:54:04.707Z,4.93
2022-12-29T19:56:36.169Z,4.94
2022-12-29T19:59:05.056Z,4.96
2022-12-29T20:01:34.060Z,4.87
2022-12-29T20:04:04.146Z,4.78
2022-12-29T20:06:38.202Z,4.82
2022-12-29T20:09:10.102Z,4.80
2022-12-29T20:11:41.772Z,4.74
2022-12-29T20:14:13.146Z,4.76
2022-12-29T20:17:08.872Z,4.78
2022-12-29T20:19:34.921Z,4.75
2022-12-29T20:22:07.780Z,4.85
2022-12-29T20:24:45.178Z,4.83
2022-12-29T20:27:19.730Z,4.74
2022-12-29T20:29:46.440Z,4.76
2022-12-29T20:32:19.120Z,4.75
2022-12-29T20:34:47.047Z,4.79
2022-12-29T20:37:19.772Z,4.71
2022-12-29T20:39:46.429Z,4.63
2022-12-29T20:42:12.877Z,4.69
2022-12-29T20:44:39.783Z,4.66
2022-12-29T20:47:08.792Z,4.65
2022-12-29T20:49:40.252Z,4.68
2022-12-29T20:52:10.490Z,4.70
2022-12-29T20:54:41.689Z,4.73
2022-12-29T20:57:13.084Z,4.79
2022-12-29T20:59:39.816Z,4.80
2022-12-29T21:02:06.691Z,4.81
2022-12-29T21:05:05.071Z,4.69
2022-12-29T21:07:24.935Z,4.64
2022-12-29T21:09:51.646Z,4.66
2022-12-29T21:12:18.157Z,4.70
2022-12-29T21:14:47.120Z,4.74
2022-12-29T21:17:16.828Z,4.69
2022-12-29T21:19:43.510Z,4.79
2022-12-29T21:22:16.950Z,4.79
2022-12-29T21:24:49.037Z,4.81
2022-12-29T21:27:15.696Z,4.83
2022-12-29T21:29:42.210Z,4.89
2022-12-29T21:32:13.849Z,4.87
2022-12-29T21:34:42.914Z,4.98
2022-12-29T21:37:11.895Z,4.97
2022-12-29T21:39:40.784Z,5.01
2022-12-29T21:42:07.412Z,5.00
2022-12-29T21:45:03.124Z,5.02
2022-12-29T21:47:52.846Z,4.95
2022-12-29T21:50:21.739Z,5.05
2022-12-29T21:52:50.787Z,5.10
2022-12-29T21:55:19.769Z,5.09
2022-12-29T21:58:05.068Z,5.22
2022-12-29T22:00:50.286Z,5.22
2022-12-29T22:03:37.543Z,5.30
2022-12-29T22:06:28.463Z,5.26
2022-12-29T22:09:13.793Z,5.23
2022-12-29T22:11:59.331Z,5.20
2022-12-29T22:14:25.895Z,5.13
2022-12-29T22:16:54.834Z,5.13
2022-12-29T22:19:21.299Z,5.13
2022-12-29T22:21:47.911Z,5.08
2022-12-29T22:24:16.846Z,5.08
2022-12-29T22:26:45.753Z,5.10
2022-12-29T22:29:14.824Z,5.10
2022-12-29T22:31:43.900Z,5.12
2022-12-29T22:34:14.210Z,5.18
2022-12-29T22:36:40.830Z,5.17
2022-12-29T22:39:12.018Z,5.26
2022-12-29T22:41:41.616Z,5.27
2022-12-29T22:44:13.128Z,5.29
2022-12-29T22:46:42.349Z,5.19
2022-12-29T22:49:11.549Z,5.18
2022-12-29T22:51:42.892Z,5.15
2022-12-29T22:54:09.518Z,5.10
2022-12-29T22:56:41.967Z,5.04
2022-12-29T22:59:12.145Z,4.97
2022-12-29T23:01:43.804Z,5.08
2022-12-29T23:04:59.314Z,5.35
2022-12-29T23:07:04.821Z,5.88
2022-12-29T23:09:31.659Z,6.03
2022-12-29T23:12:03.073Z,6.07
2022-12-29T23:14:34.612Z,5.98
2022-12-29T23:17:03.310Z,6.04
2022-12-29T23:19:32.005Z,6.11
2022-12-29T23:22:03.260Z,6.10
2022-12-29T23:24:29.808Z,6.07
2022-12-29T23:26:58.653Z,6.03
2022-12-29T23:29:30.124Z,5.98
2022-12-29T23:31:58.983Z,5.93
2022-12-29T23:34:28.100Z,5.89
2022-12-29T23:36:59.111Z,5.77
2022-12-29T23:39:29.117Z,5.70
2022-12-29T23:41:58.021Z,5.77
2022-12-29T23:44:27.202Z,5.69
2022-12-29T23:46:53.814Z,5.65
2022-12-29T23:49:23.053Z,5.66
2022-12-29T23:51:54.172Z,5.63
2022-12-29T23:54:25.307Z,5.57
2022-12-29T23:56:54.229Z,5.59
2022-12-29T23:59:23.180Z,5.52
